createdAt,value
2023-11-30T00:00:20.390Z,21.92
2023-11-30T00:02:47.817Z,21.02
2023-11-30T00:05:15.292Z,20.65
2023-11-30T00:07:42.803Z,19.10
2023-11-30T00:10:10.281Z,19.42
2023-11-30T00:12:37.752Z,20.20
2023-11-30T00:15:05.692Z,19.48
2023-11-30T00:17:33.151Z,19.85
2023-11-30T00:20:00.454Z,18.13
2023-11-30T00:22:28.080Z,18.30
2023-11-30T00:24:55.455Z,19.13
2023-11-30T00:27:22.813Z,18.15
2023-11-30T00:29:50.197Z,19.00
2023-11-30T00:32:17.540Z,19.60
2023-11-30T00:34:45.562Z,16.85
2023-11-30T00:37:13.138Z,17.85
2023-11-30T00:39:40.510Z,20.45
2023-11-30T00:42:08.119Z,20.98
2023-11-30T00:44:35.468Z,21.63
2023-11-30T00:47:02.949Z,21.60
2023-11-30T00:49:30.286Z,20.13
2023-11-30T00:51:57.674Z,19.50
2023-11-30T00:54:24.960Z,20.33
2023-11-30T00:56:52.423Z,21.92
2023-11-30T00:59:19.933Z,22.75
2023-11-30T01:01:47.378Z,18.15
2023-11-30T01:04:14.845Z,18.55
2023-11-30T01:06:42.957Z,19.45
2023-11-30T01:09:10.946Z,19.50
2023-11-30T01:11:43.547Z,19.25
2023-11-30T01:14:11.206Z,22.40
2023-11-30T01:16:38.558Z,21.42
2023-11-30T01:19:06.522Z,22.33
2023-11-30T01:21:34.214Z,21.35
2023-11-30T01:24:01.573Z,20.80
2023-11-30T01:26:28.994Z,21.40
2023-11-30T01:28:56.280Z,18.92
2023-11-30T01:31:23.700Z,22.30
2023-11-30T01:33:51.338Z,22.48
2023-11-30T01:36:18.700Z,19.17
2023-11-30T01:38:46.089Z,20.02
2023-11-30T01:41:13.806Z,18.02
2023-11-30T01:43:42.240Z,17.67
2023-11-30T01:46:10.271Z,14.07
2023-11-30T01:48:38.062Z,18.27
2023-11-30T01:51:07.339Z,18.88
2023-11-30T01:53:37.749Z,15.80
2023-11-30T01:56:07.214Z,17.40
2023-11-30T01:58:35.311Z,16.25
2023-11-30T02:01:02.756Z,16.67
2023-11-30T02:03:31.333Z,17.48
2023-11-30T02:06:00.249Z,15.80
2023-11-30T02:08:29.131Z,18.35
2023-11-30T02:10:56.797Z,17.27
2023-11-30T02:13:27.376Z,17.75
2023-11-30T02:15:55.370Z,19.42
2023-11-30T02:18:25.198Z,17.08
2023-11-30T02:20:56.948Z,13.02
2023-11-30T02:23:24.596Z,14.23
2023-11-30T02:25:51.860Z,13.05
2023-11-30T02:28:19.575Z,12.82
2023-11-30T02:30:48.163Z,13.60
2023-11-30T02:33:17.344Z,14.77
2023-11-30T02:35:44.793Z,14.60
2023-11-30T02:38:12.251Z,14.05
2023-11-30T02:40:40.436Z,18.55
2023-11-30T02:43:07.779Z,16.73
2023-11-30T02:45:35.228Z,19.95
2023-11-30T02:48:03.137Z,14.57
2023-11-30T02:50:31.611Z,15.55
2023-11-30T02:53:00.856Z,16.33
2023-11-30T02:55:28.201Z,16.92
2023-11-30T02:57:55.617Z,15.48
2023-11-30T03:00:22.978Z,16.73
2023-11-30T03:02:50.497Z,15.45
2023-11-30T03:05:17.948Z,14.65
2023-11-30T03:07:45.618Z,17.20
2023-11-30T03:10:13.121Z,17.10
2023-11-30T03:12:40.649Z,16.40
2023-11-30T03:15:09.189Z,16.17
2023-11-30T03:17:36.509Z,16.38
2023-11-30T03:20:04.025Z,19.42
2023-11-30T03:22:31.411Z,15.30
2023-11-30T03:24:58.836Z,15.95
2023-11-30T03:27:26.173Z,15.77
2023-11-30T03:29:53.534Z,17.70
2023-11-30T03:32:20.907Z,18.83
2023-11-30T03:34:48.510Z,19.08
2023-11-30T03:37:15.948Z,16.45
2023-11-30T03:39:43.330Z,17.05
2023-11-30T03:42:10.668Z,17.30
2023-11-30T03:44:38.298Z,17.13
2023-11-30T03:47:05.949Z,15.55
2023-11-30T03:49:33.258Z,16.67
2023-11-30T03:52:00.571Z,16.80
2023-11-30T03:54:27.937Z,15.45
2023-11-30T03:56:55.327Z,16.05
2023-11-30T03:59:22.690Z,18.17
2023-11-30T04:01:50.107Z,17.23
2023-11-30T04:04:17.562Z,17.90
2023-11-30T04:06:44.897Z,17.45
2023-11-30T04:09:12.333Z,16.40
2023-11-30T04:11:39.671Z,16.45
2023-11-30T04:14:08.458Z,16.90
2023-11-30T04:16:36.365Z,14.98
2023-11-30T04:19:03.907Z,15.73
2023-11-30T04:21:32.274Z,16.58
2023-11-30T04:23:59.641Z,15.57
2023-11-30T04:26:27.643Z,15.63
2023-11-30T04:28:55.812Z,16.58
2023-11-30T04:31:24.107Z,15.15
2023-11-30T04:33:51.459Z,16.10
2023-11-30T04:36:18.802Z,15.57
2023-11-30T04:38:46.113Z,16.30
2023-11-30T04:41:13.435Z,17.52
2023-11-30T04:43:41.451Z,17.15
2023-11-30T04:46:09.042Z,16.38
2023-11-30T04:48:37.268Z,13.80
2023-11-30T04:52:21.392Z,14.73
2023-11-30T04:54:48.708Z,14.77
2023-11-30T04:57:16.087Z,16.80
2023-11-30T04:59:43.436Z,16.17
2023-11-30T05:02:10.978Z,16.80
2023-11-30T05:04:38.565Z,13.77
2023-11-30T05:07:05.932Z,15.60
2023-11-30T05:09:33.292Z,15.02
2023-11-30T05:12:00.969Z,13.77
2023-11-30T05:14:28.305Z,14.18
2023-11-30T05:16:55.583Z,13.65
2023-11-30T05:19:23.299Z,13.48
2023-11-30T05:21:50.572Z,14.00
2023-11-30T05:24:18.676Z,14.35
2023-11-30T05:26:46.041Z,15.50
2023-11-30T05:29:13.447Z,15.95
2023-11-30T05:31:40.921Z,16.02
2023-11-30T05:34:08.254Z,15.30
2023-11-30T05:36:35.530Z,13.30
2023-11-30T05:39:04.706Z,11.73
2023-11-30T05:41:32.121Z,13.35
2023-11-30T05:44:02.211Z,12.05
2023-11-30T05:46:29.577Z,13.40
2023-11-30T05:48:57.386Z,12.77
2023-11-30T05:51:24.779Z,13.48
2023-11-30T05:53:52.096Z,13.27
2023-11-30T05:56:19.438Z,12.20
2023-11-30T05:58:46.833Z,13.70
2023-11-30T06:01:14.260Z,13.00
2023-11-30T06:03:41.782Z,15.23
2023-11-30T06:06:11.019Z,14.65
2023-11-30T06:08:38.470Z,14.95
2023-11-30T06:11:06.042Z,12.43
2023-11-30T06:13:33.372Z,12.30
2023-11-30T06:16:00.670Z,15.25
2023-11-30T06:18:27.982Z,15.55
2023-11-30T06:20:55.355Z,14.18
2023-11-30T06:23:22.826Z,14.43
2023-11-30T06:25:50.448Z,13.80
2023-11-30T06:28:17.888Z,14.55
2023-11-30T06:30:45.832Z,15.95
2023-11-30T06:33:13.338Z,15.63
2023-11-30T06:35:40.746Z,14.73
2023-11-30T06:41:19.167Z,12.60
2023-11-30T06:43:46.625Z,15.35
2023-11-30T06:46:26.406Z,13.73
2023-11-30T06:48:53.752Z,16.48
2023-11-30T06:51:21.112Z,16.27
2023-11-30T06:53:48.420Z,14.13
2023-11-30T06:56:16.005Z,14.68
2023-11-30T06:58:43.413Z,15.50
2023-11-30T07:01:11.140Z,14.65
2023-11-30T07:03:42.766Z,15.15
2023-11-30T07:06:11.270Z,13.82
2023-11-30T07:08:38.644Z,14.50
2023-11-30T07:11:11.242Z,12.02
2023-11-30T07:13:38.800Z,11.95
2023-11-30T07:16:06.792Z,12.70
2023-11-30T07:18:34.338Z,15.05
2023-11-30T07:21:01.747Z,12.70
2023-11-30T07:23:29.051Z,12.05
2023-11-30T07:25:59.591Z,13.80
2023-11-30T07:28:27.493Z,11.32
2023-11-30T07:30:54.830Z,12.15
2023-11-30T07:33:22.241Z,14.00
2023-11-30T07:35:49.821Z,13.05
2023-11-30T07:38:17.238Z,12.80
2023-11-30T07:40:44.558Z,11.57
2023-11-30T07:43:12.846Z,12.70
2023-11-30T07:45:40.393Z,13.93
2023-11-30T07:48:07.883Z,13.10
2023-11-30T07:50:35.578Z,12.77
2023-11-30T07:53:09.619Z,12.10
2023-11-30T07:55:39.876Z,13.05
2023-11-30T07:58:07.267Z,11.60
2023-11-30T08:00:34.758Z,11.23
2023-11-30T08:03:03.022Z,12.63
2023-11-30T08:05:30.443Z,12.40
2023-11-30T08:07:57.768Z,9.77
2023-11-30T08:10:25.130Z,8.57
2023-11-30T08:12:52.684Z,7.97
2023-11-30T08:15:20.010Z,9.35
2023-11-30T08:17:47.533Z,7.70
2023-11-30T08:20:24.032Z,6.90
2023-11-30T08:25:18.505Z,7.28
2023-11-30T08:27:50.018Z,10.00
2023-11-30T08:30:19.335Z,9.07
2023-11-30T08:32:46.712Z,8.07
2023-11-30T08:35:14.074Z,8.68
2023-11-30T08:37:41.414Z,9.93
2023-11-30T08:40:11.630Z,9.25
2023-11-30T08:42:39.083Z,11.45
2023-11-30T08:45:07.166Z,9.23
2023-11-30T08:47:34.510Z,11.45
2023-11-30T08:50:01.974Z,11.18
2023-11-30T08:52:29.346Z,11.80
2023-11-30T08:54:56.587Z,12.10
2023-11-30T08:57:24.374Z,11.50
2023-11-30T08:59:52.056Z,11.13
2023-11-30T09:02:20.871Z,11.32
2023-11-30T09:04:48.551Z,13.23
2023-11-30T09:07:15.828Z,10.27
2023-11-30T09:09:45.874Z,9.80
2023-11-30T09:12:14.986Z,11.15
2023-11-30T09:14:42.382Z,9.45
2023-11-30T09:17:09.626Z,11.60
2023-11-30T09:19:36.902Z,10.43
2023-11-30T09:22:04.597Z,10.32
2023-11-30T09:24:31.940Z,10.18
2023-11-30T09:26:59.353Z,10.73
2023-11-30T09:29:26.629Z,9.40
2023-11-30T09:31:54.159Z,8.80
2023-11-30T09:34:22.153Z,9.07
2023-11-30T09:36:50.348Z,7.80
2023-11-30T09:39:20.681Z,8.98
2023-11-30T09:41:48.114Z,9.40
2023-11-30T09:44:15.387Z,10.02
2023-11-30T09:46:43.602Z,9.13
2023-11-30T09:49:17.847Z,10.00
2023-11-30T09:52:05.357Z,8.10
2023-11-30T09:54:33.106Z,7.43
2023-11-30T09:57:00.684Z,7.72
2023-11-30T09:59:28.644Z,7.88
2023-11-30T10:02:04.648Z,7.97
2023-11-30T10:04:34.266Z,8.02
2023-11-30T10:07:03.397Z,9.52
2023-11-30T10:09:31.603Z,11.20
2023-11-30T10:11:59.169Z,8.25
2023-11-30T10:14:26.692Z,8.35
2023-11-30T10:16:54.057Z,9.50
2023-11-30T10:19:21.731Z,8.30
2023-11-30T10:21:49.129Z,9.88
2023-11-30T10:24:16.946Z,11.52
2023-11-30T10:26:44.491Z,11.65
2023-11-30T10:29:16.835Z,12.10
2023-11-30T10:31:50.587Z,9.40
2023-11-30T10:34:25.545Z,9.80
2023-11-30T10:36:56.103Z,11.90
2023-11-30T10:39:25.041Z,8.70
2023-11-30T10:41:57.002Z,8.80
2023-11-30T10:44:30.108Z,9.25
2023-11-30T10:46:59.883Z,11.60
2023-11-30T10:49:29.410Z,10.40
2023-11-30T10:52:03.682Z,10.55
2023-11-30T10:54:43.441Z,11.05
2023-11-30T10:57:11.310Z,9.85
2023-11-30T10:59:46.729Z,8.95
2023-11-30T11:02:15.504Z,10.43
2023-11-30T11:04:43.711Z,9.05
2023-11-30T11:07:14.415Z,9.02
2023-11-30T11:09:52.266Z,10.07
2023-11-30T11:12:27.278Z,8.55
2023-11-30T11:15:15.677Z,9.77
2023-11-30T11:18:08.985Z,8.35
2023-11-30T11:20:37.356Z,9.90
2023-11-30T11:23:04.731Z,7.97
2023-11-30T11:25:46.541Z,7.30
2023-11-30T11:28:18.217Z,8.35
2023-11-30T11:30:50.961Z,7.55
2023-11-30T11:33:20.532Z,8.38
2023-11-30T11:35:48.479Z,7.70
2023-11-30T11:38:15.834Z,6.22
2023-11-30T11:40:43.391Z,6.63
2023-11-30T11:43:10.735Z,8.40
2023-11-30T11:45:38.840Z,7.65
2023-11-30T11:48:09.505Z,7.40
2023-11-30T11:50:37.481Z,7.55
2023-11-30T11:53:05.050Z,7.65
2023-11-30T11:55:32.598Z,10.13
2023-11-30T11:58:00.096Z,9.05
2023-11-30T12:00:27.716Z,10.05
2023-11-30T12:03:06.662Z,10.23
2023-11-30T12:05:34.126Z,11.75
2023-11-30T12:08:02.012Z,12.75
2023-11-30T12:10:40.152Z,12.57
2023-11-30T12:13:09.402Z,9.98
2023-11-30T12:15:36.884Z,9.63
2023-11-30T12:18:04.915Z,9.98
2023-11-30T12:20:32.450Z,10.63
2023-11-30T12:23:00.395Z,9.48
2023-11-30T12:25:29.510Z,9.05
2023-11-30T12:27:57.048Z,9.95
2023-11-30T12:30:24.963Z,9.27
2023-11-30T12:32:52.702Z,8.30
2023-11-30T12:35:20.209Z,11.70
2023-11-30T12:37:49.700Z,10.68
2023-11-30T12:40:17.456Z,12.65
2023-11-30T12:42:45.037Z,12.00
2023-11-30T12:48:27.955Z,12.77
2023-11-30T12:50:55.955Z,11.93
2023-11-30T12:53:23.216Z,12.90
2023-11-30T12:55:50.651Z,9.02
2023-11-30T12:58:18.264Z,11.00
2023-11-30T13:00:45.609Z,9.45
2023-11-30T13:03:14.093Z,9.85
2023-11-30T13:05:44.370Z,10.48
2023-11-30T13:08:15.060Z,8.27
2023-11-30T13:10:42.459Z,8.40
2023-11-30T13:13:13.747Z,10.02
2023-11-30T13:15:42.041Z,7.63
2023-11-30T13:18:10.676Z,8.07
2023-11-30T13:20:38.292Z,6.13
2023-11-30T13:23:08.640Z,8.30
2023-11-30T13:25:35.944Z,6.47
2023-11-30T13:28:04.128Z,5.53
2023-11-30T13:30:38.392Z,6.95
2023-11-30T13:33:16.674Z,7.20
2023-11-30T13:35:47.706Z,5.85
2023-11-30T13:38:18.050Z,5.00
2023-11-30T13:40:46.937Z,6.65
2023-11-30T13:43:17.206Z,4.60
2023-11-30T13:45:57.689Z,4.35
2023-11-30T13:48:46.457Z,4.05
2023-11-30T13:51:33.087Z,4.75
2023-11-30T13:56:38.285Z,4.43
2023-11-30T13:59:07.171Z,8.80
2023-11-30T14:01:39.613Z,6.97
2023-11-30T14:04:09.517Z,5.80
2023-11-30T14:06:40.867Z,7.05
2023-11-30T14:12:01.842Z,5.82
2023-11-30T14:14:29.281Z,8.65
2023-11-30T14:16:56.784Z,7.03
2023-11-30T14:19:27.168Z,4.80
2023-11-30T14:21:54.552Z,5.65
2023-11-30T14:24:47.744Z,5.68
2023-11-30T14:27:34.425Z,5.72
2023-11-30T14:30:05.246Z,5.32
2023-11-30T14:32:33.603Z,7.63
2023-11-30T14:35:01.044Z,7.25
2023-11-30T14:37:29.441Z,9.05
2023-11-30T14:39:56.714Z,6.38
2023-11-30T14:42:24.145Z,6.53
2023-11-30T14:44:52.551Z,10.80
2023-11-30T14:47:26.238Z,6.53
2023-11-30T14:49:54.447Z,7.65
2023-11-30T14:53:12.970Z,5.63
2023-11-30T14:55:58.787Z,6.32
2023-11-30T14:58:26.099Z,7.10
2023-11-30T15:00:53.511Z,5.63
2023-11-30T15:03:20.982Z,7.15
2023-11-30T15:05:48.450Z,9.65
2023-11-30T15:08:17.030Z,11.02
2023-11-30T15:10:49.280Z,5.95
2023-11-30T15:13:16.739Z,6.05
2023-11-30T15:15:44.102Z,6.95
2023-11-30T15:18:11.520Z,6.68
2023-11-30T15:20:38.878Z,15.20
2023-11-30T15:23:06.162Z,12.57
2023-11-30T15:25:34.448Z,20.65
2023-11-30T15:28:01.782Z,8.80
2023-11-30T15:30:29.102Z,6.35
2023-11-30T15:32:56.416Z,4.95
2023-11-30T15:35:23.728Z,5.47
2023-11-30T15:37:56.026Z,6.63
2023-11-30T15:40:25.809Z,6.57
2023-11-30T15:42:53.378Z,5.93
2023-11-30T15:45:24.911Z,7.47
2023-11-30T15:47:52.652Z,5.88
2023-11-30T15:50:20.751Z,9.23
2023-11-30T15:52:48.077Z,9.88
2023-11-30T15:55:15.734Z,6.25
2023-11-30T15:57:45.448Z,5.70
2023-11-30T16:00:17.081Z,6.18
2023-11-30T16:02:46.390Z,7.75
2023-11-30T16:05:27.989Z,9.30
2023-11-30T16:07:58.561Z,9.55
2023-11-30T16:10:26.843Z,7.45
2023-11-30T16:12:54.372Z,7.70
2023-11-30T16:15:21.948Z,6.63
2023-11-30T16:17:52.590Z,7.47
2023-11-30T16:20:20.053Z,6.32
2023-11-30T16:22:47.480Z,7.00
2023-11-30T16:25:14.982Z,6.18
2023-11-30T16:27:45.687Z,8.43
2023-11-30T16:30:13.664Z,8.68
2023-11-30T16:32:41.314Z,7.70
2023-11-30T16:35:09.278Z,9.07
2023-11-30T16:37:36.892Z,10.30
2023-11-30T16:40:05.780Z,11.15
2023-11-30T16:42:33.289Z,8.00
2023-11-30T16:45:00.863Z,18.98
2023-11-30T16:47:28.541Z,7.78
2023-11-30T16:49:56.172Z,7.75
2023-11-30T16:52:23.564Z,9.95
2023-11-30T16:54:50.970Z,6.80
2023-11-30T16:57:18.403Z,9.02
2023-11-30T16:59:46.208Z,9.32
2023-11-30T17:02:14.813Z,7.25
2023-11-30T17:04:43.717Z,8.30
2023-11-30T17:07:11.095Z,8.10
2023-11-30T17:09:40.344Z,7.95
2023-11-30T17:12:07.898Z,7.40
2023-11-30T17:14:35.352Z,7.28
2023-11-30T17:17:03.183Z,6.95
2023-11-30T17:19:30.501Z,8.88
2023-11-30T17:21:57.831Z,8.23
2023-11-30T17:24:26.751Z,7.50
2023-11-30T17:26:55.180Z,8.30
2023-11-30T17:29:22.519Z,9.32
2023-11-30T17:31:49.914Z,10.40
2023-11-30T17:34:17.454Z,10.88
2023-11-30T17:36:45.153Z,10.93
2023-11-30T17:39:47.884Z,11.52
2023-11-30T17:42:15.852Z,10.50
2023-11-30T17:44:43.315Z,10.43
2023-11-30T17:47:10.773Z,9.23
2023-11-30T17:49:38.131Z,10.23
2023-11-30T17:52:05.652Z,11.98
2023-11-30T17:54:33.023Z,10.98
2023-11-30T17:57:00.462Z,13.55
2023-11-30T17:59:27.878Z,12.07
2023-11-30T18:01:55.304Z,9.23
2023-11-30T18:04:22.670Z,8.02
2023-11-30T18:06:50.352Z,9.02
2023-11-30T18:09:17.889Z,9.13
2023-11-30T18:11:45.452Z,8.25
2023-11-30T18:14:12.779Z,8.77
2023-11-30T18:16:40.149Z,8.60
2023-11-30T18:19:07.552Z,9.30
2023-11-30T18:21:37.029Z,10.55
2023-11-30T18:24:04.452Z,11.80
2023-11-30T18:26:39.489Z,10.70
2023-11-30T18:29:19.248Z,10.20
2023-11-30T18:32:12.964Z,12.15
2023-11-30T18:34:40.277Z,14.07
2023-11-30T18:37:07.818Z,11.63
2023-11-30T18:39:37.490Z,13.32
2023-11-30T18:42:06.280Z,13.73
2023-11-30T18:44:33.599Z,13.52
2023-11-30T18:47:02.744Z,13.35
2023-11-30T18:50:03.174Z,11.85
2023-11-30T18:52:30.682Z,15.98
2023-11-30T18:55:28.433Z,21.88
2023-11-30T18:57:55.896Z,19.75
2023-11-30T19:00:23.302Z,18.33
2023-11-30T19:02:51.094Z,14.27
2023-11-30T19:05:18.645Z,15.30
2023-11-30T19:07:46.225Z,15.45
2023-11-30T19:10:16.737Z,21.60
2023-11-30T19:13:38.194Z,15.00
2023-11-30T19:16:06.165Z,18.13
2023-11-30T19:18:33.911Z,18.83
2023-11-30T19:21:02.206Z,17.80
2023-11-30T19:23:29.469Z,21.83
2023-11-30T19:25:56.798Z,18.77
2023-11-30T19:28:24.193Z,17.45
2023-11-30T19:30:51.622Z,16.27
2023-11-30T19:33:19.061Z,17.63
2023-11-30T19:35:46.445Z,16.50
2023-11-30T19:38:17.102Z,19.90
2023-11-30T19:40:44.558Z,16.38
2023-11-30T19:43:11.862Z,19.08
2023-11-30T19:45:39.233Z,19.25
2023-11-30T19:48:06.828Z,18.73
2023-11-30T19:50:35.493Z,19.48
2023-11-30T19:53:06.367Z,19.63
2023-11-30T19:55:35.980Z,16.10
2023-11-30T19:58:16.822Z,17.80
2023-11-30T20:00:45.505Z,20.20
2023-11-30T20:03:13.322Z,21.02
2023-11-30T20:05:41.021Z,17.63
2023-11-30T20:08:08.494Z,17.08
2023-11-30T20:10:36.301Z,18.08
2023-11-30T20:13:04.103Z,21.02
2023-11-30T20:15:31.883Z,20.85
2023-11-30T20:17:59.321Z,20.38
2023-11-30T20:20:26.844Z,18.45
2023-11-30T20:22:54.250Z,20.95
2023-11-30T20:25:21.820Z,17.75
2023-11-30T20:27:49.591Z,17.55
2023-11-30T20:30:16.974Z,19.23
2023-11-30T20:32:45.163Z,19.77
2023-11-30T20:35:12.760Z,18.70
2023-11-30T20:37:40.094Z,17.70
2023-11-30T20:40:08.559Z,18.90
2023-11-30T20:42:35.946Z,17.95
2023-11-30T20:45:04.168Z,21.63
2023-11-30T20:47:31.747Z,18.55
2023-11-30T20:49:59.735Z,19.08
2023-11-30T20:52:27.104Z,18.92
2023-11-30T20:54:55.346Z,19.13
2023-11-30T20:57:22.875Z,19.13
2023-11-30T20:59:50.502Z,19.88
2023-11-30T21:02:18.327Z,19.52
2023-11-30T21:04:48.286Z,18.88
2023-11-30T21:07:15.998Z,19.73
2023-11-30T21:09:44.438Z,17.20
2023-11-30T21:12:14.058Z,18.05
2023-11-30T21:14:42.902Z,19.35
2023-11-30T21:17:13.814Z,18.58
2023-11-30T21:19:41.406Z,19.02
2023-11-30T21:22:09.298Z,22.55
2023-11-30T21:24:39.593Z,20.73
2023-11-30T21:27:07.144Z,21.27
2023-11-30T21:29:35.087Z,24.63
2023-11-30T21:32:03.695Z,26.58
2023-11-30T21:34:31.197Z,26.38
2023-11-30T21:36:59.181Z,26.55
2023-11-30T21:39:27.160Z,25.17
2023-11-30T21:41:54.986Z,23.10
2023-11-30T21:44:22.354Z,23.65
2023-11-30T21:46:49.647Z,25.30
2023-11-30T21:49:19.781Z,24.70
2023-11-30T21:51:47.813Z,23.40
2023-11-30T21:54:15.458Z,24.80
2023-11-30T21:56:43.245Z,26.25
2023-11-30T21:59:10.687Z,25.20
2023-11-30T22:01:38.327Z,25.05
2023-11-30T22:04:07.202Z,22.40
2023-11-30T22:06:34.755Z,26.52
2023-11-30T22:09:02.424Z,25.02
2023-11-30T22:11:31.882Z,31.33
2023-11-30T22:13:59.262Z,36.03
2023-11-30T22:16:33.242Z,32.13
2023-11-30T22:19:06.404Z,33.05
2023-11-30T22:21:33.867Z,29.13
2023-11-30T22:24:01.236Z,32.13
2023-11-30T22:26:28.945Z,30.45
2023-11-30T22:28:57.152Z,33.08
2023-11-30T22:31:24.978Z,29.67
2023-11-30T22:33:52.428Z,29.45
2023-11-30T22:36:20.168Z,29.58
2023-11-30T22:38:47.519Z,31.15
2023-11-30T22:41:15.054Z,30.70
2023-11-30T22:43:42.646Z,33.05
2023-11-30T22:46:18.216Z,27.92
2023-11-30T22:49:02.061Z,32.85
2023-11-30T22:51:29.944Z,33.63
2023-11-30T22:53:57.358Z,32.40
2023-11-30T22:56:26.464Z,32.20
2023-11-30T22:58:53.920Z,33.63
2023-11-30T23:01:22.162Z,32.35
2023-11-30T23:03:49.861Z,31.17
2023-11-30T23:06:17.898Z,29.20
2023-11-30T23:08:45.558Z,25.98
2023-11-30T23:11:13.066Z,31.30
2023-11-30T23:13:40.663Z,26.63
2023-11-30T23:16:08.886Z,24.73
2023-11-30T23:18:36.612Z,25.30
2023-11-30T23:21:04.439Z,23.15
2023-11-30T23:23:31.808Z,24.35
2023-11-30T23:25:59.313Z,23.83
2023-11-30T23:28:27.126Z,25.63
2023-11-30T23:30:54.690Z,25.00
2023-11-30T23:33:22.116Z,25.98
2023-11-30T23:35:49.828Z,27.10
2023-11-30T23:38:17.161Z,28.35
2023-11-30T23:40:44.442Z,25.60
2023-11-30T23:43:12.149Z,25.98
2023-11-30T23:45:39.550Z,24.10
2023-11-30T23:48:06.895Z,23.90
2023-11-30T23:50:34.389Z,25.73
2023-11-30T23:53:01.665Z,26.73
2023-11-30T23:55:28.950Z,27.25
2023-11-30T23:57:57.272Z,26.27
